createdAt,value
2019-05-10T00:00:41.716Z,9.50
2019-05-10T00:03:30.124Z,9.50
2019-05-10T00:06:18.820Z,9.50
2019-05-10T00:08:48.530Z,9.50
2019-05-10T00:11:40.529Z,9.50
2019-05-10T00:14:36.761Z,9.50
2019-05-10T00:17:19.715Z,9.50
2019-05-10T00:19:50.614Z,9.50
2019-05-10T00:22:22.028Z,9.50
2019-05-10T00:25:03.236Z,9.50
2019-05-10T00:27:24.883Z,9.50
2019-05-10T00:29:55.440Z,9.50
2019-05-10T00:32:25.912Z,9.50
2019-05-10T00:34:56.573Z,9.50
2019-05-10T00:37:27.117Z,9.50
2019-05-10T00:39:58.395Z,9.50
2019-05-10T00:42:28.931Z,9.50
2019-05-10T00:44:59.857Z,9.50
2019-05-10T00:47:30.417Z,9.50
2019-05-10T00:50:01.086Z,9.50
2019-05-10T00:52:31.525Z,9.50
2019-05-10T00:55:16.672Z,9.50
2019-05-10T00:57:34.306Z,9.50
2019-05-10T01:00:05.967Z,9.50
2019-05-10T01:02:36.558Z,9.50
2019-05-10T01:05:07.322Z,9.40
2019-05-10T01:07:37.848Z,9.40
2019-05-10T01:10:08.943Z,9.40
2019-05-10T01:12:39.606Z,9.40
2019-05-10T01:15:10.786Z,9.40
2019-05-10T01:17:41.380Z,9.30
2019-05-10T01:23:07.468Z,9.40
2019-05-10T01:25:38.461Z,9.30
2019-05-10T01:28:09.154Z,9.30
2019-05-10T01:30:40.093Z,9.30
2019-05-10T01:33:10.712Z,9.30
2019-05-10T01:35:41.276Z,9.30
2019-05-10T01:38:11.940Z,9.30
2019-05-10T01:40:42.513Z,9.30
2019-05-10T01:43:13.118Z,9.30
2019-05-10T01:45:44.185Z,9.20
2019-05-10T01:48:14.772Z,9.20
2019-05-10T01:50:45.965Z,9.20
2019-05-10T01:53:16.541Z,9.20
2019-05-10T01:55:52.340Z,9.20
2019-05-10T01:58:19.528Z,9.20
2019-05-10T02:00:50.091Z,9.20
2019-05-10T02:03:21.060Z,9.20
2019-05-10T02:05:51.650Z,9.10
2019-05-10T02:08:22.298Z,9.10
2019-05-10T02:10:52.831Z,9.10
2019-05-10T02:13:23.603Z,9.10
2019-05-10T02:15:54.178Z,9.10
2019-05-10T02:18:24.893Z,9.10
2019-05-10T02:20:55.502Z,9.00
2019-05-10T02:23:26.191Z,9.00
2019-05-10T02:26:08.899Z,9.00
2019-05-10T02:28:29.156Z,9.00
2019-05-10T02:30:59.790Z,9.00
2019-05-10T02:33:30.382Z,9.00
2019-05-10T02:36:01.975Z,8.90
2019-05-10T02:38:32.548Z,8.90
2019-05-10T02:41:03.495Z,8.90
2019-05-10T02:43:34.125Z,8.90
2019-05-10T02:46:04.718Z,8.80
2019-05-10T02:48:35.303Z,8.80
2019-05-10T02:51:06.064Z,8.80
2019-05-10T02:53:36.602Z,8.80
2019-05-10T02:56:07.233Z,8.80
2019-05-10T02:58:38.304Z,8.70
2019-05-10T03:01:11.334Z,8.70
2019-05-10T03:03:44.060Z,8.70
2019-05-10T03:06:18.392Z,8.70
2019-05-10T03:08:51.182Z,8.70
2019-05-10T03:11:22.283Z,8.70
2019-05-10T03:13:54.002Z,8.70
2019-05-10T03:16:24.583Z,8.70
2019-05-10T03:18:55.350Z,8.70
2019-05-10T03:21:27.369Z,8.70
2019-05-10T03:23:57.926Z,8.70
2019-05-10T03:26:28.531Z,8.60
2019-05-10T03:28:59.499Z,8.70
2019-05-10T03:31:30.472Z,8.70
2019-05-10T03:34:01.357Z,8.70
2019-05-10T03:36:32.178Z,8.70
2019-05-10T03:39:02.754Z,8.70
2019-05-10T03:41:33.333Z,8.70
2019-05-10T03:44:04.235Z,8.70
2019-05-10T03:46:34.908Z,8.70
2019-05-10T03:49:05.470Z,8.60
2019-05-10T03:51:36.075Z,8.60
2019-05-10T03:54:07.002Z,8.60
2019-05-10T03:56:37.620Z,8.60
2019-05-10T03:59:08.485Z,8.60
2019-05-10T04:01:39.061Z,8.60
2019-05-10T04:04:09.987Z,8.60
2019-05-10T04:06:41.135Z,8.60
2019-05-10T04:09:11.705Z,8.60
2019-05-10T04:11:42.350Z,8.60
2019-05-10T04:14:13.238Z,8.60
2019-05-10T04:16:43.818Z,8.50
2019-05-10T04:19:14.798Z,8.50
2019-05-10T04:21:45.475Z,8.50
2019-05-10T04:24:16.144Z,8.40
2019-05-10T04:26:46.752Z,8.50
2019-05-10T04:29:17.322Z,8.40
2019-05-10T04:31:48.073Z,8.40
2019-05-10T04:34:18.655Z,8.30
2019-05-10T04:36:49.245Z,8.30
2019-05-10T04:39:19.814Z,8.30
2019-05-10T04:41:50.437Z,8.40
2019-05-10T04:44:21.014Z,8.40
2019-05-10T04:46:51.588Z,8.40
2019-05-10T04:49:22.157Z,8.40
2019-05-10T04:51:52.691Z,8.40
2019-05-10T04:54:23.253Z,8.50
2019-05-10T04:56:53.963Z,8.50
2019-05-10T04:59:24.539Z,8.60
2019-05-10T05:01:55.113Z,8.70
2019-05-10T05:04:25.673Z,8.70
2019-05-10T05:06:56.350Z,8.80
2019-05-10T05:09:27.270Z,8.80
2019-05-10T05:11:57.919Z,8.90
2019-05-10T05:14:28.484Z,8.90
2019-05-10T05:16:59.053Z,9.00
2019-05-10T05:19:29.635Z,9.00
2019-05-10T05:22:00.235Z,9.10
2019-05-10T05:24:30.806Z,9.20
2019-05-10T05:27:01.419Z,9.20
2019-05-10T05:29:31.983Z,9.20
2019-05-10T05:32:03.656Z,9.20
2019-05-10T05:34:34.461Z,9.30
2019-05-10T05:37:05.529Z,9.40
2019-05-10T05:39:36.102Z,9.40
2019-05-10T05:42:06.765Z,9.50
2019-05-10T05:44:37.325Z,9.50
2019-05-10T05:47:08.009Z,9.50
2019-05-10T05:49:38.962Z,9.50
2019-05-10T05:52:09.655Z,9.50
2019-05-10T05:54:40.215Z,9.60
2019-05-10T05:57:10.810Z,9.60
2019-05-10T05:59:41.374Z,9.70
2019-05-10T06:02:11.983Z,9.80
2019-05-10T06:04:46.215Z,9.80
2019-05-10T06:07:14.879Z,9.90
2019-05-10T06:09:45.767Z,10.00
2019-05-10T06:12:16.358Z,10.00
2019-05-10T06:14:49.713Z,10.10
2019-05-10T06:17:23.655Z,10.10
2019-05-10T06:19:51.555Z,10.20
2019-05-10T06:22:22.237Z,10.10
2019-05-10T06:24:54.015Z,10.00
2019-05-10T06:27:24.730Z,10.10
2019-05-10T06:29:55.647Z,10.20
2019-05-10T06:32:26.371Z,10.30
2019-05-10T06:34:56.960Z,10.30
2019-05-10T06:37:31.075Z,10.30
2019-05-10T06:39:59.866Z,10.40
2019-05-10T06:42:34.693Z,10.30
2019-05-10T06:45:04.948Z,10.30
2019-05-10T06:47:35.040Z,10.40
2019-05-10T06:50:06.300Z,10.70
2019-05-10T06:52:36.901Z,10.70
2019-05-10T06:55:07.795Z,10.70
2019-05-10T06:57:38.446Z,10.80
2019-05-10T07:00:09.495Z,10.70
2019-05-10T07:02:40.130Z,10.80
2019-05-10T07:05:11.358Z,10.80
2019-05-10T07:07:44.586Z,11.00
2019-05-10T07:10:19.092Z,11.20
2019-05-10T07:12:46.924Z,11.20
2019-05-10T07:15:18.999Z,11.30
2019-05-10T07:17:49.557Z,11.40
2019-05-10T07:20:23.586Z,11.40
2019-05-10T07:22:52.512Z,11.50
2019-05-10T07:25:23.156Z,11.60
2019-05-10T07:27:53.760Z,11.60
2019-05-10T07:30:35.267Z,11.60
2019-05-10T07:33:06.134Z,11.40
2019-05-10T07:35:38.822Z,11.60
2019-05-10T07:38:09.612Z,11.80
2019-05-10T07:40:40.184Z,11.80
2019-05-10T07:43:11.099Z,11.80
2019-05-10T07:45:41.740Z,11.60
2019-05-10T07:48:12.314Z,11.70
2019-05-10T07:50:49.694Z,11.80
2019-05-10T07:53:16.202Z,12.00
2019-05-10T07:55:47.497Z,11.80
2019-05-10T07:58:18.211Z,11.80
2019-05-10T08:00:48.910Z,12.10
2019-05-10T08:03:23.714Z,12.00
2019-05-10T08:05:57.050Z,12.10
2019-05-10T08:08:24.254Z,12.00
2019-05-10T08:10:54.898Z,12.30
2019-05-10T08:13:25.470Z,12.60
2019-05-10T08:15:56.117Z,12.80
2019-05-10T08:18:29.173Z,12.70
2019-05-10T08:21:02.487Z,12.70
2019-05-10T08:23:32.024Z,12.90
2019-05-10T08:26:04.531Z,12.60
2019-05-10T08:28:37.919Z,12.40
2019-05-10T08:31:08.208Z,12.40
2019-05-10T08:33:44.204Z,12.40
2019-05-10T08:36:12.111Z,12.40
2019-05-10T08:38:46.152Z,12.30
2019-05-10T08:41:18.264Z,12.40
2019-05-10T08:43:47.510Z,12.70
2019-05-10T08:46:19.315Z,13.00
2019-05-10T08:48:53.608Z,12.60
2019-05-10T08:51:22.918Z,13.00
2019-05-10T08:53:58.152Z,13.10
2019-05-10T08:56:25.896Z,13.30
2019-05-10T08:58:56.583Z,13.60
2019-05-10T09:01:30.435Z,13.50
2019-05-10T09:04:04.369Z,13.70
2019-05-10T09:06:32.861Z,13.60
2019-05-10T09:09:08.181Z,13.10
2019-05-10T09:11:37.346Z,13.30
2019-05-10T09:14:12.422Z,13.40
2019-05-10T09:16:45.686Z,13.20
2019-05-10T09:19:12.580Z,13.30
2019-05-10T09:21:49.795Z,13.60
2019-05-10T09:24:15.513Z,13.70
2019-05-10T09:26:46.864Z,13.10
2019-05-10T09:29:18.405Z,13.10
2019-05-10T09:31:51.248Z,13.50
2019-05-10T09:34:23.641Z,13.70
2019-05-10T09:36:54.260Z,13.80
2019-05-10T09:39:25.425Z,13.70
2019-05-10T09:41:55.999Z,13.60
2019-05-10T09:44:26.693Z,13.30
2019-05-10T09:46:57.318Z,13.30
2019-05-10T09:49:28.040Z,13.60
2019-05-10T09:52:04.600Z,13.20
2019-05-10T09:54:33.471Z,13.40
2019-05-10T09:57:03.959Z,13.80
2019-05-10T09:59:36.759Z,13.80
2019-05-10T10:02:14.580Z,14.20
2019-05-10T10:04:39.324Z,14.00
2019-05-10T10:07:09.951Z,13.60
2019-05-10T10:09:44.699Z,13.80
2019-05-10T10:12:12.904Z,14.20
2019-05-10T10:14:43.838Z,14.20
2019-05-10T10:17:17.615Z,14.50
2019-05-10T10:19:48.031Z,14.20
2019-05-10T10:22:19.822Z,13.80
2019-05-10T10:24:54.922Z,13.90
2019-05-10T10:27:26.038Z,14.10
2019-05-10T10:29:57.309Z,14.10
2019-05-10T10:32:31.602Z,14.10
2019-05-10T10:35:00.446Z,13.90
2019-05-10T10:37:31.457Z,13.90
2019-05-10T10:40:05.343Z,14.30
2019-05-10T10:42:34.495Z,13.80
2019-05-10T10:45:07.366Z,13.90
2019-05-10T10:47:38.295Z,14.20
2019-05-10T10:50:13.549Z,13.90
2019-05-10T10:52:42.572Z,14.00
2019-05-10T10:55:13.572Z,14.20
2019-05-10T10:57:44.240Z,13.90
2019-05-10T11:00:20.240Z,14.00
2019-05-10T11:02:51.923Z,13.90
2019-05-10T11:05:19.610Z,14.00
2019-05-10T11:07:51.174Z,14.50
2019-05-10T11:10:31.254Z,15.40
2019-05-10T11:13:10.553Z,15.00
2019-05-10T11:15:36.228Z,15.10
2019-05-10T11:18:07.519Z,15.60
2019-05-10T11:20:41.961Z,15.50
2019-05-10T11:23:10.816Z,15.60
2019-05-10T11:25:50.026Z,15.60
2019-05-10T11:28:13.893Z,15.30
2019-05-10T11:30:44.478Z,15.50
2019-05-10T11:33:26.016Z,15.20
2019-05-10T11:35:47.340Z,14.90
2019-05-10T11:38:18.013Z,15.70
2019-05-10T11:40:48.593Z,15.70
2019-05-10T11:43:23.675Z,15.30
2019-05-10T11:45:51.612Z,15.90
2019-05-10T11:48:22.312Z,15.80
2019-05-10T11:50:52.885Z,15.30
2019-05-10T11:53:24.055Z,14.90
2019-05-10T11:55:54.821Z,15.50
2019-05-10T11:58:25.400Z,16.00
2019-05-10T12:00:59.655Z,16.00
2019-05-10T12:03:28.278Z,15.90
2019-05-10T12:06:06.122Z,16.90
2019-05-10T12:08:33.183Z,17.60
2019-05-10T12:11:12.443Z,17.60
2019-05-10T12:13:36.197Z,17.20
2019-05-10T12:16:07.037Z,16.90
2019-05-10T12:18:50.253Z,17.00
2019-05-10T12:21:11.363Z,16.70
2019-05-10T12:23:50.217Z,17.20
2019-05-10T12:27:14.128Z,16.70
2019-05-10T12:28:50.889Z,16.20
2019-05-10T12:31:23.221Z,16.70
2019-05-10T12:33:53.307Z,16.60
2019-05-10T12:36:27.513Z,17.20
2019-05-10T12:38:58.981Z,17.50
2019-05-10T12:41:31.509Z,18.40
2019-05-10T12:44:04.141Z,16.70
2019-05-10T12:46:34.270Z,16.80
2019-05-10T12:49:05.048Z,16.70
2019-05-10T12:51:35.696Z,16.50
2019-05-10T12:54:06.783Z,17.80
2019-05-10T12:56:43.947Z,17.30
2019-05-10T12:59:09.673Z,17.30
2019-05-10T13:01:40.326Z,17.20
2019-05-10T13:04:14.907Z,17.20
2019-05-10T13:06:43.211Z,16.90
2019-05-10T13:09:13.781Z,17.10
2019-05-10T13:11:45.017Z,17.20
2019-05-10T13:14:15.580Z,16.80
2019-05-10T13:16:46.452Z,16.30
2019-05-10T13:19:20.144Z,16.60
2019-05-10T13:21:53.631Z,17.10
2019-05-10T13:24:21.889Z,16.90
2019-05-10T13:26:52.535Z,16.30
2019-05-10T13:29:23.087Z,16.30
2019-05-10T13:31:56.623Z,16.10
2019-05-10T13:34:26.621Z,15.60
2019-05-10T13:36:57.217Z,15.60
2019-05-10T13:39:27.821Z,16.00
2019-05-10T13:42:03.454Z,16.20
2019-05-10T13:44:30.807Z,15.90
2019-05-10T13:47:04.942Z,16.30
2019-05-10T13:49:33.799Z,16.40
2019-05-10T13:52:04.408Z,16.20
2019-05-10T13:54:36.070Z,16.70
2019-05-10T13:57:07.587Z,16.70
2019-05-10T13:59:38.147Z,16.80
2019-05-10T14:02:09.129Z,16.30
2019-05-10T14:04:40.192Z,16.80
2019-05-10T14:07:10.946Z,16.30
2019-05-10T14:09:41.563Z,15.60
2019-05-10T14:12:16.195Z,15.10
2019-05-10T14:14:44.453Z,14.90
2019-05-10T14:17:15.127Z,14.80
2019-05-10T14:19:46.422Z,14.60
2019-05-10T14:22:17.459Z,14.10
2019-05-10T14:24:53.358Z,14.10
2019-05-10T14:27:20.330Z,14.20
2019-05-10T14:29:50.914Z,14.20
2019-05-10T14:32:21.829Z,14.40
2019-05-10T14:34:52.562Z,14.70
2019-05-10T14:37:23.525Z,14.90
2019-05-10T14:39:54.430Z,14.90
2019-05-10T14:42:31.038Z,14.80
2019-05-10T14:44:57.397Z,14.50
2019-05-10T14:47:27.951Z,14.50
2019-05-10T14:49:58.619Z,14.60
2019-05-10T14:52:29.268Z,14.80
2019-05-10T14:55:00.410Z,14.70
2019-05-10T14:57:31.022Z,15.00
2019-05-10T15:00:02.301Z,15.20
2019-05-10T15:02:33.311Z,15.10
2019-05-10T15:05:09.088Z,15.50
2019-05-10T15:07:36.641Z,16.40
2019-05-10T15:10:07.662Z,16.80
2019-05-10T15:12:38.221Z,17.40
2019-05-10T15:15:09.311Z,17.30
2019-05-10T15:17:40.005Z,17.50
2019-05-10T15:20:10.581Z,16.60
2019-05-10T15:22:41.237Z,15.80
2019-05-10T15:25:12.187Z,15.40
2019-05-10T15:27:42.830Z,15.00
2019-05-10T15:30:14.391Z,15.00
2019-05-10T15:32:45.445Z,14.90
2019-05-10T15:35:16.109Z,15.00
2019-05-10T15:37:48.346Z,14.60
2019-05-10T15:40:19.306Z,14.50
2019-05-10T15:42:49.996Z,14.30
2019-05-10T15:45:20.579Z,14.40
2019-05-10T15:47:52.292Z,14.40
2019-05-10T15:50:23.818Z,14.30
2019-05-10T15:52:54.483Z,14.30
2019-05-10T15:55:27.447Z,14.30
2019-05-10T15:57:58.127Z,14.10
2019-05-10T16:00:37.422Z,14.10
2019-05-10T16:03:02.150Z,14.20
2019-05-10T16:05:43.018Z,14.20
2019-05-10T16:08:05.176Z,14.40
2019-05-10T16:10:39.391Z,14.20
2019-05-10T16:13:08.348Z,15.10
2019-05-10T16:15:38.970Z,14.50
2019-05-10T16:18:09.863Z,14.70
2019-05-10T16:20:40.511Z,15.60
2019-05-10T16:23:11.328Z,15.60
2019-05-10T16:25:47.534Z,15.60
2019-05-10T16:28:15.486Z,15.30
2019-05-10T16:30:47.299Z,15.50
2019-05-10T16:33:18.278Z,15.10
2019-05-10T16:35:50.030Z,15.00
2019-05-10T16:38:21.566Z,15.00
2019-05-10T16:40:58.369Z,14.80
2019-05-10T16:43:25.191Z,14.60
2019-05-10T16:45:55.863Z,14.90
2019-05-10T16:48:28.435Z,14.60
2019-05-10T16:51:03.953Z,14.70
2019-05-10T16:53:31.575Z,14.30
2019-05-10T16:56:02.235Z,14.40
2019-05-10T16:58:33.115Z,14.20
2019-05-10T17:01:03.745Z,14.30
2019-05-10T17:03:34.321Z,14.30
2019-05-10T17:06:05.737Z,14.30
2019-05-10T17:08:38.697Z,14.10
2019-05-10T17:11:10.220Z,14.00
2019-05-10T17:13:43.092Z,14.10
2019-05-10T17:16:16.953Z,14.20
2019-05-10T17:18:49.843Z,15.30
2019-05-10T17:21:18.822Z,14.50
2019-05-10T17:23:49.556Z,14.00
2019-05-10T17:26:20.447Z,13.90
2019-05-10T17:28:51.185Z,14.00
2019-05-10T17:31:21.771Z,13.70
2019-05-10T17:33:52.354Z,13.70
2019-05-10T17:36:23.243Z,13.60
2019-05-10T17:38:55.591Z,13.50
2019-05-10T17:41:27.011Z,13.50
2019-05-10T17:43:57.718Z,13.50
2019-05-10T17:46:28.287Z,13.50
2019-05-10T17:48:58.947Z,13.50
2019-05-10T17:51:29.525Z,13.50
2019-05-10T17:54:01.700Z,13.50
2019-05-10T17:56:38.045Z,13.50
2019-05-10T17:59:05.996Z,13.50
2019-05-10T18:01:37.719Z,13.40
2019-05-10T18:04:08.868Z,13.30
2019-05-10T18:06:39.858Z,13.30
2019-05-10T18:09:10.529Z,13.20
2019-05-10T18:11:42.768Z,13.20
2019-05-10T18:14:18.014Z,13.10
2019-05-10T18:16:48.187Z,13.10
2019-05-10T18:19:24.455Z,13.00
2019-05-10T18:21:55.021Z,13.00
2019-05-10T18:24:24.286Z,12.90
2019-05-10T18:26:54.968Z,12.90
2019-05-10T18:29:25.513Z,12.80
2019-05-10T18:31:58.397Z,12.80
2019-05-10T18:34:32.958Z,12.70
2019-05-10T18:37:01.622Z,12.70
2019-05-10T18:39:32.640Z,12.60
2019-05-10T18:42:03.405Z,12.60
2019-05-10T18:44:34.464Z,12.50
2019-05-10T18:47:05.078Z,12.50
2019-05-10T18:49:35.709Z,12.40
2019-05-10T18:52:06.622Z,12.30
2019-05-10T18:54:38.579Z,12.30
2019-05-10T18:57:12.235Z,12.20
2019-05-10T18:59:45.304Z,12.20
2019-05-10T19:02:17.995Z,12.10
2019-05-10T19:04:52.217Z,12.10
2019-05-10T19:07:19.493Z,12.00
2019-05-10T19:09:50.156Z,11.90
2019-05-10T19:12:22.498Z,11.90
2019-05-10T19:14:53.048Z,11.80
2019-05-10T19:17:23.694Z,11.80
2019-05-10T19:19:54.552Z,11.70
2019-05-10T19:22:25.143Z,11.70
2019-05-10T19:24:57.043Z,11.70
2019-05-10T19:27:27.945Z,11.70
2019-05-10T19:29:58.955Z,11.70
2019-05-10T19:32:29.550Z,11.70
2019-05-10T19:35:00.184Z,11.80
2019-05-10T19:37:34.242Z,11.80
2019-05-10T19:40:03.085Z,11.80
2019-05-10T19:42:37.194Z,11.70
2019-05-10T19:45:06.631Z,11.80
2019-05-10T19:47:37.300Z,11.80
2019-05-10T19:50:08.381Z,11.70
2019-05-10T19:52:39.257Z,11.80
2019-05-10T19:55:13.185Z,11.80
2019-05-10T19:57:42.364Z,11.70
2019-05-10T20:00:13.112Z,11.70
2019-05-10T20:02:43.679Z,11.70
2019-05-10T20:05:14.618Z,11.70
2019-05-10T20:07:46.714Z,11.60
2019-05-10T20:10:17.825Z,11.60
2019-05-10T20:12:48.384Z,11.60
2019-05-10T20:15:19.258Z,11.50
2019-05-10T20:17:50.044Z,11.40
2019-05-10T20:20:20.763Z,11.40
2019-05-10T20:22:51.327Z,11.30
2019-05-10T20:25:22.015Z,11.40
2019-05-10T20:27:52.560Z,11.50
2019-05-10T20:30:23.371Z,11.60
2019-05-10T20:32:54.443Z,11.60
2019-05-10T20:35:25.465Z,11.60
2019-05-10T20:38:02.188Z,11.60
2019-05-10T20:40:28.987Z,11.70
2019-05-10T20:42:59.601Z,11.70
2019-05-10T20:45:30.179Z,11.70
2019-05-10T20:48:00.830Z,11.80
2019-05-10T20:50:31.476Z,11.90
2019-05-10T20:53:02.159Z,11.90
2019-05-10T20:55:32.778Z,12.00
2019-05-10T20:58:03.525Z,12.00
2019-05-10T21:00:34.122Z,12.10
2019-05-10T21:03:04.733Z,12.10
2019-05-10T21:05:35.412Z,12.10
2019-05-10T21:08:16.614Z,12.10
2019-05-10T21:10:38.673Z,12.10
2019-05-10T21:13:09.758Z,12.10
2019-05-10T21:15:40.371Z,12.10
2019-05-10T21:18:10.960Z,12.10
2019-05-10T21:20:41.641Z,12.10
2019-05-10T21:23:12.695Z,12.00
2019-05-10T21:25:43.283Z,12.00
2019-05-10T21:28:14.251Z,12.00
2019-05-10T21:30:44.853Z,11.90
2019-05-10T21:33:15.585Z,11.90
2019-05-10T21:35:46.218Z,11.90
2019-05-10T21:38:31.668Z,11.90
2019-05-10T21:40:49.536Z,11.90
2019-05-10T21:43:20.189Z,11.80
2019-05-10T21:45:50.816Z,11.90
2019-05-10T21:48:21.426Z,11.90
2019-05-10T21:50:52.025Z,11.90
2019-05-10T21:53:22.734Z,11.90
2019-05-10T21:55:53.343Z,12.00
2019-05-10T21:58:23.984Z,12.00
2019-05-10T22:00:55.181Z,12.00
2019-05-10T22:03:25.877Z,12.10
2019-05-10T22:05:56.491Z,12.00
2019-05-10T22:08:27.239Z,12.00
2019-05-10T22:10:57.848Z,11.90
2019-05-10T22:13:28.484Z,11.80
2019-05-10T22:15:59.427Z,11.70
2019-05-10T22:18:31.668Z,11.60
2019-05-10T22:21:02.376Z,11.40
2019-05-10T22:23:32.992Z,11.20
2019-05-10T22:26:04.039Z,11.00
2019-05-10T22:28:34.633Z,11.00
2019-05-10T22:31:05.686Z,11.00
2019-05-10T22:33:36.315Z,11.00
2019-05-10T22:36:06.928Z,10.90
2019-05-10T22:38:38.169Z,10.90
2019-05-10T22:41:08.928Z,10.90
2019-05-10T22:43:39.521Z,11.00
2019-05-10T22:46:11.418Z,10.90
2019-05-10T22:48:42.007Z,11.00
2019-05-10T22:51:13.052Z,11.00
2019-05-10T22:53:43.657Z,11.00
2019-05-10T22:56:14.360Z,10.90
2019-05-10T22:58:44.960Z,10.90
2019-05-10T23:01:15.935Z,10.90
2019-05-10T23:03:46.607Z,10.80
2019-05-10T23:06:17.293Z,10.70
2019-05-10T23:08:48.559Z,10.70
2019-05-10T23:11:19.763Z,10.60
2019-05-10T23:13:50.448Z,10.60
2019-05-10T23:16:21.352Z,10.50
2019-05-10T23:18:52.074Z,10.60
2019-05-10T23:21:23.252Z,10.50
2019-05-10T23:23:54.399Z,10.50
2019-05-10T23:26:25.095Z,10.60
2019-05-10T23:28:55.735Z,10.60
2019-05-10T23:31:26.655Z,10.60
2019-05-10T23:33:57.614Z,10.50
2019-05-10T23:36:28.330Z,10.50
2019-05-10T23:38:59.344Z,10.50
2019-05-10T23:41:30.003Z,10.50
2019-05-10T23:44:00.656Z,10.50
2019-05-10T23:46:31.473Z,10.50
2019-05-10T23:49:02.082Z,10.40
2019-05-10T23:51:33.626Z,10.40
2019-05-10T23:54:04.636Z,10.40
2019-05-10T23:56:36.060Z,10.40
2019-05-10T23:59:06.999Z,10.30
